createdAt,value
2022-10-30T00:00:44.038Z,70.63
2022-10-30T00:02:47.815Z,71.05
2022-10-30T00:04:50.416Z,71.31
2022-10-30T00:06:52.979Z,71.31
2022-10-30T00:08:55.548Z,71.39
2022-10-30T00:10:58.113Z,71.13
2022-10-30T00:13:00.710Z,71.22
2022-10-30T00:15:05.840Z,71.70
2022-10-30T00:17:11.089Z,71.83
2022-10-30T00:19:13.655Z,72.06
2022-10-30T00:21:17.087Z,72.35
2022-10-30T00:23:20.309Z,72.17
2022-10-30T00:25:23.078Z,72.16
2022-10-30T00:27:25.650Z,72.02
2022-10-30T00:29:28.228Z,72.19
2022-10-30T00:31:32.327Z,72.20
2022-10-30T00:33:34.908Z,72.18
2022-10-30T00:35:37.495Z,72.44
2022-10-30T00:37:40.092Z,72.61
2022-10-30T00:39:42.656Z,72.64
2022-10-30T00:41:45.215Z,72.60
2022-10-30T00:43:47.996Z,72.69
2022-10-30T00:45:50.577Z,72.82
2022-10-30T00:47:58.937Z,72.82
2022-10-30T00:50:12.941Z,72.75
2022-10-30T00:52:16.007Z,72.76
2022-10-30T00:54:19.862Z,72.83
2022-10-30T00:56:23.854Z,72.64
2022-10-30T00:58:30.116Z,72.53
2022-10-30T01:00:32.857Z,72.51
2022-10-30T01:02:35.818Z,72.68
2022-10-30T01:04:40.781Z,72.72
2022-10-30T01:06:48.137Z,72.62
2022-10-30T01:08:56.932Z,72.62
2022-10-30T01:11:04.426Z,72.52
2022-10-30T01:13:07.867Z,72.19
2022-10-30T01:15:11.977Z,71.86
2022-10-30T01:17:47.231Z,71.40
2022-10-30T01:22:30.869Z,71.15
2022-10-30T01:24:47.444Z,71.43
2022-10-30T01:26:59.014Z,71.63
2022-10-30T01:29:14.345Z,71.66
2022-10-30T01:31:32.306Z,71.69
2022-10-30T01:33:47.103Z,71.84
2022-10-30T01:35:58.213Z,71.87
2022-10-30T01:38:07.772Z,72.10
2022-10-30T01:40:14.147Z,72.15
2022-10-30T01:42:46.418Z,72.43
2022-10-30T01:44:49.155Z,72.38
2022-10-30T01:47:10.479Z,72.55
2022-10-30T01:49:28.520Z,72.74
2022-10-30T01:51:46.691Z,72.73
2022-10-30T01:54:02.426Z,72.79
2022-10-30T01:56:19.827Z,72.96
2022-10-30T01:58:28.119Z,72.88
2022-10-30T02:00:30.715Z,72.87
2022-10-30T02:02:33.976Z,72.96
2022-10-30T02:04:37.255Z,73.07
2022-10-30T02:06:42.003Z,73.17
2022-10-30T02:08:44.575Z,73.15
2022-10-30T02:10:49.145Z,73.32
2022-10-30T02:12:52.255Z,73.19
2022-10-30T02:14:58.840Z,73.23
2022-10-30T02:17:05.055Z,73.19
2022-10-30T02:19:07.759Z,73.08
2022-10-30T02:21:11.803Z,73.24
2022-10-30T02:23:18.899Z,73.06
2022-10-30T02:25:21.469Z,73.03
2022-10-30T02:27:23.996Z,72.47
2022-10-30T02:29:26.592Z,72.22
2022-10-30T02:31:29.308Z,71.88
2022-10-30T02:33:31.872Z,72.14
2022-10-30T02:35:35.337Z,72.38
2022-10-30T02:37:39.584Z,72.52
2022-10-30T02:39:42.143Z,72.54
2022-10-30T02:41:44.811Z,72.53
2022-10-30T02:43:47.367Z,72.52
2022-10-30T02:45:51.475Z,72.31
2022-10-30T02:47:54.077Z,72.22
2022-10-30T02:49:57.293Z,71.96
2022-10-30T02:51:59.832Z,71.73
2022-10-30T02:54:03.755Z,71.45
2022-10-30T02:56:08.540Z,72.11
2022-10-30T02:58:11.180Z,71.79
2022-10-30T03:00:15.158Z,72.17
2022-10-30T03:02:17.788Z,72.50
2022-10-30T03:04:20.359Z,72.68
2022-10-30T03:06:23.010Z,72.78
2022-10-30T03:08:25.532Z,73.08
2022-10-30T03:10:29.451Z,73.16
2022-10-30T03:12:32.023Z,73.26
2022-10-30T03:14:34.646Z,73.22
2022-10-30T03:16:38.306Z,73.31
2022-10-30T03:18:41.487Z,73.48
2022-10-30T03:20:44.072Z,73.22
2022-10-30T03:22:46.616Z,73.23
2022-10-30T03:24:49.193Z,73.25
2022-10-30T03:26:53.144Z,73.21
2022-10-30T03:28:55.761Z,73.13
2022-10-30T03:31:02.669Z,73.17
2022-10-30T03:33:05.365Z,73.10
2022-10-30T03:35:08.478Z,73.48
2022-10-30T03:37:11.051Z,73.57
2022-10-30T03:39:13.574Z,73.53
2022-10-30T03:41:16.135Z,73.42
2022-10-30T03:43:20.506Z,73.15
2022-10-30T03:45:23.014Z,72.94
2022-10-30T03:47:25.545Z,73.37
2022-10-30T03:49:28.117Z,73.54
2022-10-30T03:51:30.683Z,73.73
2022-10-30T03:53:33.275Z,73.75
2022-10-30T03:55:35.915Z,73.88
2022-10-30T03:57:39.212Z,74.08
2022-10-30T03:59:43.173Z,73.87
2022-10-30T04:01:45.979Z,73.67
2022-10-30T04:03:48.679Z,73.69
2022-10-30T04:05:54.133Z,73.31
2022-10-30T04:07:58.393Z,73.43
2022-10-30T04:10:00.955Z,72.99
2022-10-30T04:12:03.602Z,72.93
2022-10-30T04:14:06.215Z,72.53
2022-10-30T04:16:10.201Z,71.86
2022-10-30T04:18:13.738Z,71.38
2022-10-30T04:20:16.545Z,71.14
2022-10-30T04:22:19.106Z,70.98
2022-10-30T04:24:21.828Z,71.39
2022-10-30T04:26:24.450Z,71.25
2022-10-30T04:28:27.230Z,71.56
2022-10-30T04:30:34.084Z,71.46
2022-10-30T04:32:38.348Z,71.29
2022-10-30T04:34:40.885Z,71.59
2022-10-30T04:36:43.476Z,71.77
2022-10-30T04:38:46.059Z,71.31
2022-10-30T04:40:48.629Z,71.40
2022-10-30T04:42:51.432Z,71.77
2022-10-30T04:44:54.004Z,71.53
2022-10-30T04:46:56.564Z,71.40
2022-10-30T04:49:00.477Z,71.70
2022-10-30T04:51:03.062Z,71.90
2022-10-30T04:53:07.651Z,72.18
2022-10-30T04:55:11.611Z,72.26
2022-10-30T04:57:14.187Z,72.13
2022-10-30T04:59:16.730Z,72.13
2022-10-30T05:01:19.410Z,72.19
2022-10-30T05:03:23.700Z,72.21
2022-10-30T05:05:28.330Z,72.16
2022-10-30T05:07:30.928Z,72.30
2022-10-30T05:09:33.717Z,72.30
2022-10-30T05:11:36.287Z,72.33
2022-10-30T05:13:38.856Z,72.29
2022-10-30T05:15:41.460Z,72.21
2022-10-30T05:17:44.218Z,72.28
2022-10-30T05:19:46.790Z,72.09
2022-10-30T05:21:50.711Z,72.01
2022-10-30T05:23:53.267Z,71.98
2022-10-30T05:25:55.839Z,72.21
2022-10-30T05:27:59.743Z,72.09
2022-10-30T05:30:03.016Z,72.28
2022-10-30T05:32:06.144Z,72.26
2022-10-30T05:34:08.809Z,72.35
2022-10-30T05:36:11.384Z,72.62
2022-10-30T05:38:15.360Z,72.47
2022-10-30T05:40:17.979Z,72.76
2022-10-30T05:42:20.538Z,72.54
2022-10-30T05:44:34.700Z,72.57
2022-10-30T05:46:45.698Z,72.30
2022-10-30T05:48:48.351Z,72.26
2022-10-30T05:50:50.912Z,72.30
2022-10-30T05:52:56.695Z,72.06
2022-10-30T05:55:01.074Z,72.15
2022-10-30T05:57:03.647Z,72.14
2022-10-30T05:59:06.230Z,72.34
2022-10-30T06:01:09.424Z,72.48
2022-10-30T06:03:13.507Z,72.18
2022-10-30T06:05:16.137Z,72.17
2022-10-30T06:07:18.691Z,72.09
2022-10-30T06:09:21.263Z,72.33
2022-10-30T06:11:25.187Z,72.18
2022-10-30T06:13:27.779Z,72.37
2022-10-30T06:15:31.598Z,72.11
2022-10-30T06:17:34.168Z,72.62
2022-10-30T06:19:36.863Z,72.56
2022-10-30T06:21:39.418Z,72.02
2022-10-30T06:23:41.986Z,72.44
2022-10-30T06:25:44.564Z,72.94
2022-10-30T06:27:48.487Z,73.08
2022-10-30T06:29:51.126Z,72.88
2022-10-30T06:31:53.670Z,72.50
2022-10-30T06:33:56.304Z,72.75
2022-10-30T06:35:58.947Z,72.40
2022-10-30T06:38:01.630Z,72.79
2022-10-30T06:40:04.898Z,73.49
2022-10-30T06:42:07.577Z,73.91
2022-10-30T06:44:11.590Z,73.85
2022-10-30T06:46:14.277Z,74.03
2022-10-30T06:48:18.772Z,74.12
2022-10-30T06:50:24.135Z,73.99
2022-10-30T06:52:26.726Z,73.98
2022-10-30T06:54:29.299Z,74.09
2022-10-30T06:56:33.972Z,73.93
2022-10-30T06:58:39.084Z,74.18
2022-10-30T07:00:43.122Z,73.92
2022-10-30T07:02:45.725Z,73.91
2022-10-30T07:04:48.291Z,73.74
2022-10-30T07:06:50.873Z,73.82
2022-10-30T07:08:53.448Z,73.70
2022-10-30T07:10:57.812Z,73.61
2022-10-30T07:13:00.822Z,73.61
2022-10-30T07:15:03.773Z,73.43
2022-10-30T07:17:07.670Z,73.47
2022-10-30T07:19:10.302Z,73.32
2022-10-30T07:21:12.843Z,73.10
2022-10-30T07:23:15.407Z,73.09
2022-10-30T07:25:18.231Z,72.97
2022-10-30T07:27:20.801Z,72.99
2022-10-30T07:29:23.552Z,72.94
2022-10-30T07:31:41.418Z,72.85
2022-10-30T07:33:46.782Z,72.84
2022-10-30T07:35:49.410Z,72.29
2022-10-30T07:37:51.951Z,71.55
2022-10-30T07:39:54.535Z,70.95
2022-10-30T07:41:57.116Z,70.66
2022-10-30T07:43:59.671Z,70.56
2022-10-30T07:46:02.266Z,70.65
2022-10-30T07:48:05.200Z,70.67
2022-10-30T07:50:10.421Z,70.20
2022-10-30T07:52:17.447Z,70.18
2022-10-30T07:54:20.239Z,70.40
2022-10-30T07:56:22.802Z,70.50
2022-10-30T07:58:25.462Z,70.33
2022-10-30T08:00:28.171Z,70.23
2022-10-30T08:02:30.978Z,70.21
2022-10-30T08:04:33.600Z,70.17
2022-10-30T08:06:37.485Z,70.16
2022-10-30T08:08:43.179Z,70.28
2022-10-30T08:10:46.236Z,70.17
2022-10-30T08:12:48.825Z,70.31
2022-10-30T08:14:51.419Z,70.39
2022-10-30T08:16:53.956Z,70.45
2022-10-30T08:18:56.648Z,70.72
2022-10-30T08:20:59.201Z,70.78
2022-10-30T08:23:03.394Z,70.90
2022-10-30T08:25:06.783Z,71.11
2022-10-30T08:27:10.483Z,71.03
2022-10-30T08:29:13.123Z,70.19
2022-10-30T08:31:15.696Z,70.07
2022-10-30T08:33:18.325Z,70.42
2022-10-30T08:35:21.043Z,70.33
2022-10-30T08:37:23.683Z,70.49
2022-10-30T08:39:27.644Z,70.03
2022-10-30T08:41:30.229Z,70.15
2022-10-30T08:43:32.807Z,70.16
2022-10-30T08:45:35.513Z,69.86
2022-10-30T08:47:38.164Z,70.20
2022-10-30T08:49:40.795Z,70.33
2022-10-30T08:51:44.295Z,70.31
2022-10-30T08:53:49.232Z,70.19
2022-10-30T08:55:53.565Z,70.16
2022-10-30T08:57:56.121Z,70.06
2022-10-30T08:59:58.660Z,69.88
2022-10-30T09:02:01.390Z,69.63
2022-10-30T09:04:04.230Z,69.15
2022-10-30T09:06:07.238Z,68.52
2022-10-30T09:08:09.795Z,67.66
2022-10-30T09:10:12.838Z,68.00
2022-10-30T09:12:16.901Z,68.29
2022-10-30T09:14:19.479Z,68.30
2022-10-30T09:16:22.032Z,67.88
2022-10-30T09:18:24.592Z,67.25
2022-10-30T09:20:28.004Z,66.43
2022-10-30T09:22:30.603Z,66.84
2022-10-30T09:24:33.146Z,66.26
2022-10-30T09:26:35.725Z,67.07
2022-10-30T09:28:39.634Z,67.35
2022-10-30T09:30:42.228Z,67.42
2022-10-30T09:32:44.842Z,68.01
2022-10-30T09:34:48.112Z,68.19
2022-10-30T09:36:50.663Z,68.40
2022-10-30T09:38:53.779Z,68.65
2022-10-30T09:41:22.715Z,67.64
2022-10-30T09:43:36.650Z,67.18
2022-10-30T09:45:57.085Z,66.82
2022-10-30T09:48:12.153Z,66.78
2022-10-30T09:50:26.276Z,66.86
2022-10-30T09:52:39.325Z,66.97
2022-10-30T09:54:56.749Z,67.19
2022-10-30T09:57:05.418Z,66.68
2022-10-30T09:59:20.838Z,66.99
2022-10-30T10:01:30.223Z,67.09
2022-10-30T10:03:43.030Z,67.18
2022-10-30T10:05:50.721Z,67.08
2022-10-30T10:07:58.056Z,67.26
2022-10-30T10:10:04.312Z,67.45
2022-10-30T10:12:12.162Z,67.61
2022-10-30T10:14:21.187Z,67.78
2022-10-30T10:16:31.194Z,67.55
2022-10-30T10:18:38.996Z,67.74
2022-10-30T10:20:44.851Z,67.29
2022-10-30T10:22:49.897Z,67.04
2022-10-30T10:24:54.294Z,66.79
2022-10-30T10:27:01.307Z,66.02
2022-10-30T10:29:25.437Z,66.11
2022-10-30T10:31:40.323Z,66.47
2022-10-30T10:33:57.645Z,66.81
2022-10-30T10:36:11.117Z,67.33
2022-10-30T10:38:27.162Z,67.78
2022-10-30T10:40:45.988Z,68.01
2022-10-30T10:43:01.482Z,68.10
2022-10-30T10:45:20.706Z,67.79
2022-10-30T10:47:47.522Z,67.42
2022-10-30T10:50:03.967Z,67.08
2022-10-30T10:52:11.035Z,66.90
2022-10-30T10:54:17.808Z,66.22
2022-10-30T10:56:27.725Z,65.24
2022-10-30T10:58:36.346Z,64.19
2022-10-30T11:00:39.468Z,62.60
2022-10-30T11:02:50.073Z,62.06
2022-10-30T11:04:55.018Z,62.08
2022-10-30T11:06:59.336Z,62.40
2022-10-30T11:09:16.395Z,63.08
2022-10-30T11:11:19.007Z,63.28
2022-10-30T11:13:21.614Z,63.44
2022-10-30T11:15:36.087Z,63.47
2022-10-30T11:17:43.896Z,63.61
2022-10-30T11:19:51.998Z,63.98
2022-10-30T11:21:57.190Z,64.44
2022-10-30T11:23:59.845Z,64.53
2022-10-30T11:26:03.429Z,64.64
2022-10-30T11:28:06.999Z,64.63
2022-10-30T11:30:19.484Z,64.69
2022-10-30T11:32:23.504Z,64.82
2022-10-30T11:34:33.194Z,64.92
2022-10-30T11:36:37.131Z,64.95
2022-10-30T11:38:39.724Z,64.55
2022-10-30T11:40:52.728Z,64.80
2022-10-30T11:43:00.487Z,64.79
2022-10-30T11:45:05.385Z,64.71
2022-10-30T11:47:09.496Z,64.93
2022-10-30T11:49:26.903Z,64.92
2022-10-30T11:51:36.427Z,65.23
2022-10-30T11:53:43.798Z,65.33
2022-10-30T11:55:49.199Z,65.46
2022-10-30T11:57:56.202Z,65.36
2022-10-30T12:00:04.609Z,65.41
2022-10-30T12:02:22.712Z,65.35
2022-10-30T12:04:27.797Z,64.90
2022-10-30T12:06:30.795Z,64.52
2022-10-30T12:08:33.410Z,64.29
2022-10-30T12:10:45.059Z,63.92
2022-10-30T12:12:52.419Z,63.43
2022-10-30T12:14:56.063Z,61.67
2022-10-30T12:16:59.821Z,60.97
2022-10-30T12:19:04.920Z,60.85
2022-10-30T12:21:08.919Z,60.99
2022-10-30T12:23:13.671Z,61.12
2022-10-30T12:25:25.851Z,61.35
2022-10-30T12:27:32.356Z,61.82
2022-10-30T12:30:06.965Z,61.78
2022-10-30T12:32:09.069Z,61.77
2022-10-30T12:34:27.643Z,61.87
2022-10-30T12:36:36.074Z,61.00
2022-10-30T12:38:44.599Z,61.02
2022-10-30T12:41:01.163Z,61.32
2022-10-30T12:43:16.367Z,61.47
2022-10-30T12:45:24.886Z,61.31
2022-10-30T12:47:35.304Z,61.12
2022-10-30T12:49:43.083Z,61.44
2022-10-30T12:51:55.171Z,61.37
2022-10-30T12:54:03.493Z,60.93
2022-10-30T12:56:12.078Z,60.27
2022-10-30T12:58:24.792Z,59.88
2022-10-30T13:00:31.570Z,59.50
2022-10-30T13:02:46.562Z,59.90
2022-10-30T13:04:55.459Z,59.71
2022-10-30T13:07:05.749Z,59.61
2022-10-30T13:09:16.418Z,59.03
2022-10-30T13:11:26.532Z,58.94
2022-10-30T13:13:36.310Z,58.80
2022-10-30T13:15:45.308Z,59.16
2022-10-30T13:17:47.948Z,59.58
2022-10-30T13:19:51.047Z,60.00
2022-10-30T13:22:01.270Z,60.17
2022-10-30T13:24:07.493Z,59.42
2022-10-30T13:26:20.168Z,59.12
2022-10-30T13:28:27.117Z,58.88
2022-10-30T13:30:37.938Z,58.96
2022-10-30T13:32:53.596Z,59.54
2022-10-30T13:35:09.334Z,59.86
2022-10-30T13:37:17.456Z,60.12
2022-10-30T13:39:29.275Z,60.09
2022-10-30T13:41:39.341Z,60.28
2022-10-30T13:43:50.780Z,60.45
2022-10-30T13:46:28.208Z,60.70
2022-10-30T13:48:43.279Z,60.95
2022-10-30T13:51:07.696Z,61.20
2022-10-30T13:53:15.733Z,61.33
2022-10-30T13:55:23.860Z,61.54
2022-10-30T13:57:31.033Z,61.81
2022-10-30T13:59:50.703Z,61.77
2022-10-30T14:02:02.279Z,62.07
2022-10-30T14:04:07.987Z,62.26
2022-10-30T14:06:17.265Z,62.54
2022-10-30T14:10:46.001Z,62.77
2022-10-30T14:12:54.044Z,62.44
2022-10-30T14:14:56.643Z,62.33
2022-10-30T14:17:15.679Z,62.59
2022-10-30T14:19:19.761Z,62.57
2022-10-30T14:21:43.233Z,63.11
2022-10-30T14:23:45.976Z,63.57
2022-10-30T14:26:16.128Z,63.90
2022-10-30T14:28:21.180Z,64.16
2022-10-30T14:30:23.787Z,64.21
2022-10-30T14:32:43.029Z,64.79
2022-10-30T14:34:47.207Z,65.13
2022-10-30T14:36:50.013Z,65.63
2022-10-30T14:39:00.171Z,65.63
2022-10-30T14:41:48.586Z,65.92
2022-10-30T14:44:04.431Z,66.30
2022-10-30T14:46:18.376Z,66.73
2022-10-30T14:48:28.475Z,67.06
2022-10-30T14:50:55.777Z,67.28
2022-10-30T14:53:35.795Z,67.60
2022-10-30T14:55:53.366Z,68.04
2022-10-30T14:58:18.120Z,68.46
2022-10-30T15:00:45.599Z,68.44
2022-10-30T15:02:55.986Z,69.44
2022-10-30T15:05:16.693Z,69.99
2022-10-30T15:07:27.773Z,70.76
2022-10-30T15:09:41.578Z,71.39
2022-10-30T15:12:22.072Z,71.82
2022-10-30T15:14:40.705Z,72.05
2022-10-30T15:16:52.455Z,72.26
2022-10-30T15:19:02.427Z,72.50
2022-10-30T15:21:08.904Z,73.11
2022-10-30T15:23:17.010Z,73.40
2022-10-30T15:25:21.741Z,73.80
2022-10-30T15:27:26.507Z,73.63
2022-10-30T15:29:32.999Z,73.71
2022-10-30T15:31:35.549Z,73.52
2022-10-30T15:33:38.772Z,73.03
2022-10-30T15:35:48.526Z,72.35
2022-10-30T15:38:07.360Z,71.56
2022-10-30T15:40:11.298Z,71.07
2022-10-30T15:42:14.421Z,70.84
2022-10-30T15:44:19.943Z,70.57
2022-10-30T15:46:22.739Z,70.69
2022-10-30T15:48:28.270Z,70.74
2022-10-30T15:50:32.066Z,70.84
2022-10-30T15:52:35.925Z,70.79
2022-10-30T15:54:42.873Z,70.98
2022-10-30T15:57:15.773Z,71.33
2022-10-30T15:59:18.447Z,71.10
2022-10-30T16:01:29.110Z,70.74
2022-10-30T16:03:32.731Z,70.84
2022-10-30T16:05:36.055Z,70.57
2022-10-30T16:07:46.018Z,70.22
2022-10-30T16:09:58.792Z,70.09
2022-10-30T16:12:01.734Z,70.24
2022-10-30T16:14:09.098Z,69.98
2022-10-30T16:16:17.619Z,69.93
2022-10-30T16:18:22.352Z,69.48
2022-10-30T16:20:25.573Z,69.46
2022-10-30T16:22:30.276Z,69.18
2022-10-30T16:24:36.418Z,69.09
2022-10-30T16:26:40.369Z,68.88
2022-10-30T16:28:48.462Z,68.52
2022-10-30T16:30:51.570Z,68.10
2022-10-30T16:32:54.640Z,67.58
2022-10-30T16:34:59.631Z,66.90
2022-10-30T16:37:03.682Z,66.37
2022-10-30T16:39:06.631Z,66.20
2022-10-30T16:41:13.381Z,65.54
2022-10-30T16:43:27.890Z,64.74
2022-10-30T16:45:51.865Z,64.35
2022-10-30T16:48:03.098Z,63.92
2022-10-30T16:50:13.355Z,63.68
2022-10-30T16:52:17.428Z,63.36
2022-10-30T16:54:22.682Z,62.87
2022-10-30T16:56:27.449Z,62.26
2022-10-30T16:58:32.721Z,61.88
2022-10-30T17:00:36.768Z,61.68
2022-10-30T17:02:48.358Z,61.57
2022-10-30T17:04:57.014Z,61.42
2022-10-30T17:07:19.919Z,61.34
2022-10-30T17:09:25.903Z,61.12
2022-10-30T17:11:37.267Z,60.84
2022-10-30T17:13:56.809Z,60.15
2022-10-30T17:16:00.340Z,59.88
2022-10-30T17:18:11.803Z,59.87
2022-10-30T17:20:30.799Z,59.67
2022-10-30T17:22:34.334Z,59.71
2022-10-30T17:24:39.290Z,60.01
2022-10-30T17:26:42.010Z,60.14
2022-10-30T17:28:46.897Z,59.95
2022-10-30T17:30:49.457Z,60.07
2022-10-30T17:32:55.134Z,59.71
2022-10-30T17:35:01.893Z,60.16
2022-10-30T17:37:04.894Z,60.66
2022-10-30T17:39:08.125Z,61.17
2022-10-30T17:41:16.766Z,61.72
2022-10-30T17:43:19.389Z,61.68
2022-10-30T17:45:23.338Z,62.17
2022-10-30T17:47:26.267Z,61.55
2022-10-30T17:49:30.299Z,61.50
2022-10-30T17:51:32.960Z,61.57
2022-10-30T17:53:35.625Z,61.67
2022-10-30T17:55:39.857Z,60.99
2022-10-30T17:57:42.405Z,60.66
2022-10-30T17:59:45.019Z,60.60
2022-10-30T18:01:49.875Z,60.48
2022-10-30T18:03:54.909Z,60.53
2022-10-30T18:05:58.655Z,60.64
2022-10-30T18:08:01.304Z,60.43
2022-10-30T18:10:03.923Z,60.07
2022-10-30T18:12:07.646Z,59.78
2022-10-30T18:14:11.587Z,59.58
2022-10-30T18:16:17.173Z,59.29
2022-10-30T18:18:21.114Z,58.87
2022-10-30T18:20:24.039Z,58.83
2022-10-30T18:22:26.635Z,58.74
2022-10-30T18:24:29.297Z,58.54
2022-10-30T18:26:35.171Z,58.83
2022-10-30T18:28:40.340Z,59.10
2022-10-30T18:30:43.766Z,59.12
2022-10-30T18:32:46.982Z,59.29
2022-10-30T18:34:50.943Z,59.53
2022-10-30T18:36:53.527Z,59.06
2022-10-30T18:38:56.185Z,58.96
2022-10-30T18:40:59.488Z,58.97
2022-10-30T18:43:02.800Z,58.41
2022-10-30T18:45:18.882Z,58.36
2022-10-30T18:47:21.495Z,58.25
2022-10-30T18:49:26.566Z,58.51
2022-10-30T18:51:30.814Z,59.41
2022-10-30T18:53:35.318Z,60.06
2022-10-30T18:55:39.882Z,60.89
2022-10-30T18:57:42.571Z,61.66
2022-10-30T18:59:45.193Z,62.08
2022-10-30T19:01:47.924Z,61.85
2022-10-30T19:03:50.808Z,61.73
2022-10-30T19:05:53.379Z,61.75
2022-10-30T19:07:58.359Z,61.87
2022-10-30T19:10:01.497Z,61.65
2022-10-30T19:12:04.124Z,61.56
2022-10-30T19:14:10.907Z,61.87
2022-10-30T19:16:16.122Z,62.42
2022-10-30T19:18:20.928Z,62.98
2022-10-30T19:20:37.541Z,63.43
2022-10-30T19:22:46.114Z,63.72
2022-10-30T19:24:50.006Z,64.02
2022-10-30T19:26:52.609Z,63.99
2022-10-30T19:28:55.159Z,64.03
2022-10-30T19:30:57.779Z,63.98
2022-10-30T19:33:00.347Z,63.88
2022-10-30T19:35:02.940Z,63.25
2022-10-30T19:37:05.499Z,63.69
2022-10-30T19:39:13.081Z,63.68
2022-10-30T19:41:17.023Z,63.75
2022-10-30T19:43:19.755Z,64.07
2022-10-30T19:45:24.462Z,63.91
2022-10-30T19:47:27.084Z,64.55
2022-10-30T19:49:29.654Z,64.96
2022-10-30T19:51:32.226Z,65.09
2022-10-30T19:53:34.875Z,65.35
2022-10-30T19:55:38.773Z,65.65
2022-10-30T19:57:42.700Z,66.25
2022-10-30T19:59:45.313Z,66.86
2022-10-30T20:01:47.960Z,67.40
2022-10-30T20:03:50.600Z,67.67
2022-10-30T20:05:54.164Z,68.27
2022-10-30T20:08:05.238Z,68.74
2022-10-30T20:10:16.229Z,69.13
2022-10-30T20:12:18.830Z,69.65
2022-10-30T20:14:22.745Z,70.26
2022-10-30T20:16:25.324Z,70.67
2022-10-30T20:18:31.346Z,70.60
2022-10-30T20:20:35.720Z,70.68
2022-10-30T20:22:38.320Z,71.09
2022-10-30T20:24:40.880Z,71.30
2022-10-30T20:26:43.579Z,71.33
2022-10-30T20:28:46.737Z,71.63
2022-10-30T20:30:50.967Z,71.80
2022-10-30T20:32:53.599Z,71.85
2022-10-30T20:34:57.980Z,71.94
2022-10-30T20:37:00.598Z,72.07
2022-10-30T20:39:03.201Z,71.99
2022-10-30T20:41:06.740Z,71.75
2022-10-30T20:43:13.134Z,71.73
2022-10-30T20:45:17.798Z,71.57
2022-10-30T20:47:21.794Z,71.36
2022-10-30T20:49:24.445Z,71.22
2022-10-30T20:51:27.054Z,71.17
2022-10-30T20:53:30.676Z,70.99
2022-10-30T20:55:34.486Z,70.58
2022-10-30T20:59:44.923Z,69.64
2022-10-30T21:01:47.618Z,69.49
2022-10-30T21:03:53.749Z,69.35
2022-10-30T21:05:59.891Z,68.89
2022-10-30T21:08:02.818Z,69.36
2022-10-30T21:10:06.385Z,69.15
2022-10-30T21:12:09.124Z,69.03
2022-10-30T21:14:11.742Z,68.82
2022-10-30T21:16:14.349Z,68.41
2022-10-30T21:18:16.927Z,68.66
2022-10-30T21:20:21.027Z,68.56
2022-10-30T21:22:23.641Z,68.56
2022-10-30T21:24:27.506Z,68.36
2022-10-30T21:26:30.067Z,68.30
2022-10-30T21:28:32.690Z,68.25
2022-10-30T21:30:36.023Z,68.65
2022-10-30T21:32:38.685Z,68.71
2022-10-30T21:34:41.338Z,68.52
2022-10-30T21:36:45.289Z,68.76
2022-10-30T21:38:47.907Z,68.76
2022-10-30T21:40:56.955Z,68.89
2022-10-30T21:43:03.062Z,68.95
2022-10-30T21:45:08.572Z,68.85
2022-10-30T21:47:11.189Z,68.83
2022-10-30T21:49:16.299Z,68.68
2022-10-30T21:51:20.627Z,68.47
2022-10-30T21:53:24.516Z,68.68
2022-10-30T21:55:27.078Z,68.79
2022-10-30T21:57:29.733Z,68.87
2022-10-30T21:59:32.314Z,68.72
2022-10-30T22:01:37.070Z,68.75
2022-10-30T22:03:39.750Z,67.82
2022-10-30T22:05:42.324Z,68.17
2022-10-30T22:07:44.866Z,68.10
2022-10-30T22:09:48.765Z,68.48
2022-10-30T22:11:51.391Z,68.62
2022-10-30T22:13:55.331Z,68.94
2022-10-30T22:15:58.125Z,69.44
2022-10-30T22:18:00.900Z,69.27
2022-10-30T22:20:04.535Z,69.36
2022-10-30T22:22:07.143Z,69.52
2022-10-30T22:24:09.939Z,69.68
2022-10-30T22:26:15.435Z,69.47
2022-10-30T22:30:25.498Z,67.44
2022-10-30T22:32:28.132Z,66.78
2022-10-30T22:34:30.731Z,67.35
2022-10-30T22:36:34.537Z,67.51
2022-10-30T22:38:37.095Z,67.33
2022-10-30T22:40:39.904Z,67.06
2022-10-30T22:42:43.826Z,67.07
2022-10-30T22:44:46.355Z,67.06
2022-10-30T22:46:48.920Z,66.91
2022-10-30T22:48:51.907Z,66.95
2022-10-30T22:50:57.856Z,67.08
2022-10-30T22:53:00.680Z,67.15
2022-10-30T22:55:03.291Z,67.14
2022-10-30T22:57:05.953Z,67.22
2022-10-30T22:59:13.128Z,67.29
2022-10-30T23:01:17.622Z,67.33
2022-10-30T23:03:20.301Z,67.62
2022-10-30T23:05:23.968Z,67.44
2022-10-30T23:07:26.570Z,67.55
2022-10-30T23:09:29.158Z,67.56
2022-10-30T23:11:33.092Z,67.70
2022-10-30T23:13:36.979Z,67.59
2022-10-30T23:15:41.023Z,67.26
2022-10-30T23:17:44.380Z,67.04
2022-10-30T23:19:46.928Z,67.13
2022-10-30T23:21:49.499Z,67.08
2022-10-30T23:23:52.933Z,67.09
2022-10-30T23:25:56.022Z,67.04
2022-10-30T23:27:58.923Z,66.97
2022-10-30T23:30:04.052Z,66.78
2022-10-30T23:32:08.636Z,66.29
2022-10-30T23:34:13.403Z,65.97
2022-10-30T23:36:16.863Z,65.71
2022-10-30T23:38:19.412Z,65.68
2022-10-30T23:40:22.088Z,65.84
2022-10-30T23:42:24.744Z,65.66
2022-10-30T23:44:27.326Z,65.57
2022-10-30T23:46:30.373Z,65.49
2022-10-30T23:48:34.275Z,65.51
2022-10-30T23:50:36.899Z,65.79
2022-10-30T23:52:39.558Z,65.18
2022-10-30T23:54:42.177Z,65.29
2022-10-30T23:56:44.726Z,64.92
2022-10-30T23:58:48.673Z,64.80
